createdAt,value
2024-03-12T00:00:02.012Z,998.56
2024-03-12T00:01:02.087Z,998.54
2024-03-12T00:02:02.108Z,998.59
2024-03-12T00:03:01.995Z,998.55
2024-03-12T00:04:02.035Z,998.56
2024-03-12T00:05:02.021Z,998.55
2024-03-12T00:06:01.976Z,998.59
2024-03-12T00:07:02.034Z,998.56
2024-03-12T00:08:01.975Z,998.58
2024-03-12T00:09:01.976Z,998.56
2024-03-12T00:10:02.417Z,998.61
2024-03-12T00:11:02.006Z,998.64
2024-03-12T00:12:01.947Z,998.63
2024-03-12T00:13:02.030Z,998.64
2024-03-12T00:14:01.939Z,998.64
2024-03-12T00:15:01.935Z,998.68
2024-03-12T00:16:02.008Z,998.68
2024-03-12T00:17:01.923Z,998.68
2024-03-12T00:18:01.944Z,998.71
2024-03-12T00:19:01.979Z,998.69
2024-03-12T00:20:01.908Z,998.71
2024-03-12T00:21:01.908Z,998.74
2024-03-12T00:22:01.922Z,998.72
2024-03-12T00:23:01.889Z,998.74
2024-03-12T00:24:01.882Z,998.77
2024-03-12T00:25:02.086Z,998.75
2024-03-12T00:26:01.870Z,998.79
2024-03-12T00:27:01.879Z,998.76
2024-03-12T00:28:02.008Z,998.81
2024-03-12T00:29:01.867Z,998.78
2024-03-12T00:30:01.855Z,998.80
2024-03-12T00:31:02.045Z,998.84
2024-03-12T00:32:01.842Z,998.84
2024-03-12T00:33:01.921Z,998.87
2024-03-12T00:34:02.033Z,998.86
2024-03-12T00:35:01.829Z,998.90
2024-03-12T00:36:01.834Z,998.94
2024-03-12T00:37:01.971Z,998.89
2024-03-12T00:38:01.809Z,998.92
2024-03-12T00:39:01.803Z,998.94
2024-03-12T00:40:02.077Z,998.94
2024-03-12T00:41:01.807Z,998.96
2024-03-12T00:42:01.794Z,998.98
2024-03-12T00:43:01.828Z,998.95
2024-03-12T00:44:01.817Z,998.95
2024-03-12T00:45:01.786Z,998.96
2024-03-12T00:46:01.809Z,999.00
2024-03-12T00:47:01.781Z,999.02
2024-03-12T00:48:01.761Z,999.04
2024-03-12T00:49:01.815Z,999.05
2024-03-12T00:50:01.757Z,999.05
2024-03-12T00:51:01.742Z,999.05
2024-03-12T00:52:01.808Z,999.08
2024-03-12T00:53:01.746Z,999.05
2024-03-12T00:54:01.728Z,999.07
2024-03-12T00:55:01.797Z,999.09
2024-03-12T00:56:01.725Z,999.04
2024-03-12T00:57:01.710Z,999.11
2024-03-12T00:58:01.775Z,999.05
2024-03-12T00:59:01.700Z,999.08
2024-03-12T01:00:01.699Z,999.09
2024-03-12T01:01:01.798Z,999.14
2024-03-12T01:02:01.705Z,999.14
2024-03-12T01:03:01.689Z,999.13
2024-03-12T01:04:01.713Z,999.16
2024-03-12T01:05:01.677Z,999.13
2024-03-12T01:06:01.694Z,999.16
2024-03-12T01:07:01.701Z,999.15
2024-03-12T01:08:01.753Z,999.19
2024-03-12T01:09:01.655Z,999.17
2024-03-12T01:10:01.774Z,999.18
2024-03-12T01:11:01.691Z,999.16
2024-03-12T01:12:01.637Z,999.17
2024-03-12T01:13:01.802Z,999.15
2024-03-12T01:14:01.630Z,999.10
2024-03-12T01:15:01.619Z,999.14
2024-03-12T01:16:01.660Z,999.17
2024-03-12T01:17:01.612Z,999.16
2024-03-12T01:18:02.046Z,999.11
2024-03-12T01:19:01.723Z,999.18
2024-03-12T01:20:01.601Z,999.15
2024-03-12T01:21:01.596Z,999.18
2024-03-12T01:22:01.718Z,999.17
2024-03-12T01:23:01.595Z,999.19
2024-03-12T01:24:01.575Z,999.16
2024-03-12T01:25:01.734Z,999.16
2024-03-12T01:26:01.569Z,999.22
2024-03-12T01:27:01.561Z,999.20
2024-03-12T01:28:01.645Z,999.21
2024-03-12T01:29:01.552Z,999.25
2024-03-12T01:30:01.567Z,999.24
2024-03-12T01:31:01.687Z,999.24
2024-03-12T01:32:01.545Z,999.22
2024-03-12T01:33:01.576Z,999.22
2024-03-12T01:34:01.618Z,999.25
2024-03-12T01:35:01.515Z,999.19
2024-03-12T01:36:01.513Z,999.28
2024-03-12T01:37:01.533Z,999.26
2024-03-12T01:38:01.503Z,999.24
2024-03-12T01:39:01.502Z,999.26
2024-03-12T01:40:01.515Z,999.26
2024-03-12T01:41:01.486Z,999.31
2024-03-12T01:42:01.488Z,999.28
2024-03-12T01:43:01.565Z,999.25
2024-03-12T01:44:01.470Z,999.26
2024-03-12T01:45:01.491Z,999.28
2024-03-12T01:46:01.530Z,999.31
2024-03-12T01:47:01.452Z,999.31
2024-03-12T01:48:01.514Z,999.31
2024-03-12T01:49:01.541Z,999.37
2024-03-12T01:50:01.450Z,999.38
2024-03-12T01:51:01.448Z,999.37
2024-03-12T01:52:01.461Z,999.40
2024-03-12T01:53:01.561Z,999.41
2024-03-12T01:54:01.414Z,999.40
2024-03-12T01:55:01.566Z,999.39
2024-03-12T01:56:01.402Z,999.41
2024-03-12T01:57:01.411Z,999.38
2024-03-12T01:58:01.475Z,999.39
2024-03-12T01:59:01.393Z,999.34
2024-03-12T02:00:01.420Z,999.33
2024-03-12T02:01:01.543Z,999.37
2024-03-12T02:02:01.534Z,999.36
2024-03-12T02:03:01.372Z,999.36
2024-03-12T02:05:01.385Z,999.35
2024-03-12T02:06:01.352Z,999.36
2024-03-12T02:07:01.404Z,999.38
2024-03-12T02:08:01.350Z,999.40
2024-03-12T02:09:01.359Z,999.40
2024-03-12T02:10:01.486Z,999.41
2024-03-12T02:11:01.352Z,999.41
2024-03-12T02:12:01.314Z,999.41
2024-03-12T02:13:01.359Z,999.43
2024-03-12T02:14:01.306Z,999.46
2024-03-12T02:15:01.305Z,999.45
2024-03-12T02:16:01.360Z,999.45
2024-03-12T02:17:01.294Z,999.44
2024-03-12T02:18:01.355Z,999.49
2024-03-12T02:19:01.399Z,999.42
2024-03-12T02:20:01.272Z,999.40
2024-03-12T02:21:01.267Z,999.44
2024-03-12T02:22:01.403Z,999.43
2024-03-12T02:23:01.258Z,999.50
2024-03-12T02:24:01.249Z,999.50
2024-03-12T02:25:01.442Z,999.51
2024-03-12T02:26:01.242Z,999.56
2024-03-12T02:27:01.238Z,999.52
2024-03-12T02:28:01.251Z,999.56
2024-03-12T02:29:01.233Z,999.57
2024-03-12T02:30:01.287Z,999.60
2024-03-12T02:31:01.360Z,999.61
2024-03-12T02:32:01.210Z,999.60
2024-03-12T02:33:01.261Z,999.58
2024-03-12T02:34:01.335Z,999.64
2024-03-12T02:35:01.194Z,999.60
2024-03-12T02:36:01.185Z,999.64
2024-03-12T02:37:01.327Z,999.62
2024-03-12T02:38:01.190Z,999.64
2024-03-12T02:39:01.175Z,999.66
2024-03-12T02:40:01.191Z,999.69
2024-03-12T02:41:01.155Z,999.65
2024-03-12T02:42:01.164Z,999.70
2024-03-12T02:43:01.222Z,999.71
2024-03-12T02:44:01.158Z,999.70
2024-03-12T02:45:01.175Z,999.75
2024-03-12T02:46:01.177Z,999.73
2024-03-12T02:47:01.151Z,999.77
2024-03-12T02:48:01.169Z,999.76
2024-03-12T02:49:01.220Z,999.78
2024-03-12T02:50:01.105Z,999.84
2024-03-12T02:51:01.117Z,999.78
2024-03-12T02:52:01.131Z,999.81
2024-03-12T02:53:01.097Z,999.82
2024-03-12T02:54:01.092Z,999.79
2024-03-12T02:55:01.244Z,999.79
2024-03-12T02:56:01.076Z,999.77
2024-03-12T02:57:01.068Z,999.84
2024-03-12T02:58:01.107Z,999.83
2024-03-12T02:59:01.089Z,999.81
2024-03-12T03:00:01.110Z,999.82
2024-03-12T03:01:01.173Z,999.80
2024-03-12T03:02:01.088Z,999.83
2024-03-12T03:03:01.039Z,999.85
2024-03-12T03:04:01.160Z,999.85
2024-03-12T03:05:01.025Z,999.89
2024-03-12T03:06:01.017Z,999.89
2024-03-12T03:07:01.098Z,999.85
2024-03-12T03:08:01.024Z,999.88
2024-03-12T03:09:01.005Z,999.83
2024-03-12T03:10:01.153Z,999.83
2024-03-12T03:11:01.159Z,999.85
2024-03-12T03:12:00.979Z,999.84
2024-03-12T03:13:01.009Z,999.81
2024-03-12T03:14:00.973Z,999.80
2024-03-12T03:15:00.966Z,999.76
2024-03-12T03:16:01.006Z,999.77
2024-03-12T03:17:00.957Z,999.77
2024-03-12T03:18:01.178Z,999.75
2024-03-12T03:19:01.001Z,999.73
2024-03-12T03:20:00.943Z,999.76
2024-03-12T03:21:00.932Z,999.73
2024-03-12T03:22:00.986Z,999.80
2024-03-12T03:23:00.936Z,999.78
2024-03-12T03:24:00.950Z,999.80
2024-03-12T03:25:01.015Z,999.84
2024-03-12T03:26:00.911Z,999.83
2024-03-12T03:27:00.903Z,999.88
2024-03-12T03:28:00.950Z,999.89
2024-03-12T03:29:00.893Z,999.91
2024-03-12T03:30:00.904Z,999.93
2024-03-12T03:31:01.471Z,999.91
2024-03-12T03:32:00.894Z,999.95
2024-03-12T03:33:00.913Z,999.95
2024-03-12T03:34:00.915Z,999.91
2024-03-12T03:35:00.859Z,999.94
2024-03-12T03:36:00.868Z,999.96
2024-03-12T03:37:00.946Z,999.98
2024-03-12T03:38:00.854Z,1000.00
2024-03-12T03:39:00.842Z,1000.01
2024-03-12T03:40:01.003Z,1000.01
2024-03-12T03:41:00.830Z,999.94
2024-03-12T03:42:00.819Z,999.98
2024-03-12T03:43:00.855Z,1000.00
2024-03-12T03:44:00.818Z,999.99
2024-03-12T03:45:00.810Z,1000.03
2024-03-12T03:46:00.933Z,1000.09
2024-03-12T03:47:00.797Z,1000.14
2024-03-12T03:48:00.824Z,1000.12
2024-03-12T03:49:00.927Z,1000.17
2024-03-12T03:50:00.775Z,1000.20
2024-03-12T03:51:00.777Z,1000.18
2024-03-12T03:52:00.789Z,1000.20
2024-03-12T03:53:00.760Z,1000.27
2024-03-12T03:54:00.775Z,1000.23
2024-03-12T03:55:00.801Z,1000.25
2024-03-12T03:56:00.770Z,1000.28
2024-03-12T03:57:00.772Z,1000.33
2024-03-12T03:58:00.807Z,1000.30
2024-03-12T03:59:00.727Z,1000.31
2024-03-12T04:00:00.743Z,1000.29
2024-03-12T04:01:00.775Z,1000.30
2024-03-12T04:02:00.779Z,1000.29
2024-03-12T04:03:00.706Z,1000.31
2024-03-12T04:04:00.735Z,1000.31
2024-03-12T04:05:00.691Z,1000.37
2024-03-12T04:06:00.684Z,1000.36
2024-03-12T04:07:00.716Z,1000.35
2024-03-12T04:08:00.688Z,1000.40
2024-03-12T04:09:00.671Z,1000.35
2024-03-12T04:10:00.823Z,1000.43
2024-03-12T04:11:00.776Z,1000.42
2024-03-12T04:12:00.658Z,1000.44
2024-03-12T04:13:00.770Z,1000.46
2024-03-12T04:14:00.648Z,1000.42
2024-03-12T04:15:00.666Z,1000.46
2024-03-12T04:16:00.872Z,1000.44
2024-03-12T04:17:00.628Z,1000.49
2024-03-12T04:18:00.650Z,1000.46
2024-03-12T04:19:00.745Z,1000.49
2024-03-12T04:20:00.637Z,1000.53
2024-03-12T04:21:00.601Z,1000.54
2024-03-12T04:22:00.639Z,1000.50
2024-03-12T04:23:00.604Z,1000.54
2024-03-12T04:24:00.629Z,1000.56
2024-03-12T04:25:00.606Z,1000.59
2024-03-12T04:26:00.586Z,1000.60
2024-03-12T04:27:00.579Z,1000.58
2024-03-12T04:28:00.751Z,1000.58
2024-03-12T04:29:00.568Z,1000.62
2024-03-12T04:30:00.601Z,1000.58
2024-03-12T04:31:00.649Z,1000.65
2024-03-12T04:32:00.544Z,1000.61
2024-03-12T04:33:00.600Z,1000.60
2024-03-12T04:34:00.611Z,1000.60
2024-03-12T04:35:00.557Z,1000.60
2024-03-12T04:36:00.516Z,1000.62
2024-03-12T04:37:00.591Z,1000.62
2024-03-12T04:38:00.535Z,1000.64
2024-03-12T04:39:00.509Z,1000.60
2024-03-12T04:40:00.580Z,1000.63
2024-03-12T04:41:00.489Z,1000.65
2024-03-12T04:42:00.488Z,1000.67
2024-03-12T04:43:00.545Z,1000.63
2024-03-12T04:44:00.476Z,1000.64
2024-03-12T04:45:00.492Z,1000.68
2024-03-12T04:46:00.494Z,1000.66
2024-03-12T04:47:00.453Z,1000.70
2024-03-12T04:48:00.454Z,1000.64
2024-03-12T04:49:00.513Z,1000.69
2024-03-12T04:50:00.434Z,1000.68
2024-03-12T04:51:00.436Z,1000.68
2024-03-12T04:52:00.562Z,1000.72
2024-03-12T04:53:00.420Z,1000.67
2024-03-12T04:54:00.421Z,1000.73
2024-03-12T04:55:00.432Z,1000.73
2024-03-12T04:56:00.409Z,1000.70
2024-03-12T04:57:00.402Z,1000.71
2024-03-12T04:58:00.449Z,1000.68
2024-03-12T04:59:00.390Z,1000.75
2024-03-12T05:00:00.414Z,1000.72
2024-03-12T05:01:00.516Z,1000.75
2024-03-12T05:02:00.412Z,1000.78
2024-03-12T05:03:00.372Z,1000.79
2024-03-12T05:04:04.739Z,1000.80
2024-03-12T05:05:00.359Z,1000.80
2024-03-12T05:06:00.361Z,1000.81
2024-03-12T05:07:00.452Z,1000.84
2024-03-12T05:08:00.341Z,1000.88
2024-03-12T05:09:00.328Z,1000.87
2024-03-12T05:10:00.479Z,1000.90
2024-03-12T05:11:02.548Z,1000.90
2024-03-12T05:12:00.331Z,1000.93
2024-03-12T05:13:00.372Z,1000.94
2024-03-12T05:14:00.315Z,1000.95
2024-03-12T05:15:00.317Z,1000.95
2024-03-12T05:16:00.353Z,1000.98
2024-03-12T05:17:00.374Z,1000.95
2024-03-12T05:18:00.365Z,1000.97
2024-03-12T05:19:00.303Z,1001.00
2024-03-12T05:20:00.260Z,1001.03
2024-03-12T05:21:00.263Z,1001.01
2024-03-12T05:22:00.393Z,1001.06
2024-03-12T05:23:00.303Z,1001.07
2024-03-12T05:24:00.237Z,1001.13
2024-03-12T05:25:00.390Z,1001.13
2024-03-12T05:26:00.257Z,1001.15
2024-03-12T05:27:03.524Z,1001.19
2024-03-12T05:28:00.305Z,1001.13
2024-03-12T05:29:00.241Z,1001.14
2024-03-12T05:30:00.266Z,1001.15
2024-03-12T05:31:00.292Z,1001.21
2024-03-12T05:32:00.250Z,1001.23
2024-03-12T05:33:00.224Z,1001.22
2024-03-12T05:34:00.299Z,1001.24
2024-03-12T05:35:00.614Z,1001.26
2024-03-12T05:36:00.185Z,1001.25
2024-03-12T05:37:03.029Z,1001.27
2024-03-12T05:38:00.174Z,1001.32
2024-03-12T05:39:00.156Z,1001.30
2024-03-12T05:40:00.359Z,1001.27
2024-03-12T05:41:00.144Z,1001.30
2024-03-12T05:42:00.144Z,1001.28
2024-03-12T05:43:00.185Z,1001.32
2024-03-12T05:44:00.151Z,1001.32
2024-03-12T05:45:00.207Z,1001.33
2024-03-12T05:46:00.209Z,1001.31
2024-03-12T05:47:00.196Z,1001.33
2024-03-12T05:48:00.221Z,1001.38
2024-03-12T05:49:00.106Z,1001.34
2024-03-12T05:50:03.052Z,1001.38
2024-03-12T05:51:00.091Z,1001.36
2024-03-12T05:52:00.124Z,1001.42
2024-03-12T05:53:00.072Z,1001.40
2024-03-12T05:54:01.309Z,1001.41
2024-03-12T05:55:00.096Z,1001.46
2024-03-12T05:56:00.056Z,1001.42
2024-03-12T05:57:00.057Z,1001.48
2024-03-12T05:58:00.078Z,1001.50
2024-03-12T05:59:00.137Z,1001.49
2024-03-12T06:00:00.037Z,1001.54
2024-03-12T06:01:00.178Z,1001.54
2024-03-12T06:02:00.052Z,1001.55
2024-03-12T06:03:00.015Z,1001.59
2024-03-12T06:04:00.127Z,1001.58
2024-03-12T06:05:00.080Z,1001.59
2024-03-12T06:06:00.070Z,1001.62
2024-03-12T06:07:00.046Z,1001.68
2024-03-12T06:08:00.076Z,1001.67
2024-03-12T06:09:00.001Z,1001.69
2024-03-12T06:10:00.075Z,1001.74
2024-03-12T06:10:59.998Z,1001.76
2024-03-12T06:11:59.982Z,1001.75
2024-03-12T06:13:00.006Z,1001.76
2024-03-12T06:14:02.935Z,1001.78
2024-03-12T06:14:59.957Z,1001.80
2024-03-12T06:16:00.027Z,1001.79
2024-03-12T06:16:59.931Z,1001.82
2024-03-12T06:18:00.027Z,1001.83
2024-03-12T06:18:59.969Z,1001.81
2024-03-12T06:19:59.916Z,1001.86
2024-03-12T06:20:59.922Z,1001.85
2024-03-12T06:21:59.958Z,1001.88
2024-03-12T06:22:59.901Z,1001.87
2024-03-12T06:23:59.888Z,1001.88
2024-03-12T06:24:59.985Z,1001.88
2024-03-12T06:25:59.956Z,1001.88
2024-03-12T06:26:59.882Z,1001.90
2024-03-12T06:27:59.913Z,1001.92
2024-03-12T06:28:59.883Z,1001.95
2024-03-12T06:29:59.927Z,1001.92
2024-03-12T06:30:59.900Z,1001.91
2024-03-12T06:31:59.899Z,1001.91
2024-03-12T06:32:59.860Z,1001.96
2024-03-12T06:33:59.926Z,1001.93
2024-03-12T06:34:59.828Z,1001.91
2024-03-12T06:35:59.918Z,1001.98
2024-03-12T06:36:59.879Z,1001.98
2024-03-12T06:37:59.819Z,1001.94
2024-03-12T06:38:59.802Z,1001.98
2024-03-12T06:39:59.935Z,1002.01
2024-03-12T06:40:59.812Z,1002.00
2024-03-12T06:41:59.864Z,1002.01
2024-03-12T06:42:59.808Z,1002.05
2024-03-12T06:43:59.829Z,1002.03
2024-03-12T06:44:59.770Z,1002.04
2024-03-12T06:45:59.880Z,1002.08
2024-03-12T06:46:59.804Z,1002.06
2024-03-12T06:47:59.854Z,1002.08
2024-03-12T06:48:59.760Z,1002.04
2024-03-12T06:49:59.803Z,1002.08
2024-03-12T06:51:59.815Z,1002.13
2024-03-12T06:52:59.728Z,1002.15
2024-03-12T06:53:59.776Z,1002.12
2024-03-12T06:54:59.807Z,1002.15
2024-03-12T06:55:59.710Z,1002.17
2024-03-12T06:56:59.708Z,1002.18
2024-03-12T06:57:59.764Z,1002.17
2024-03-12T06:58:59.690Z,1002.16
2024-03-12T06:59:59.684Z,1002.20
2024-03-12T07:00:59.728Z,1002.16
2024-03-12T07:01:59.713Z,1002.19
2024-03-12T07:02:59.676Z,1002.22
2024-03-12T07:03:59.782Z,1002.23
2024-03-12T07:04:59.732Z,1002.25
2024-03-12T07:06:59.717Z,1002.23
2024-03-12T07:07:59.708Z,1002.29
2024-03-12T07:08:59.635Z,1002.27
2024-03-12T07:09:59.802Z,1002.33
2024-03-12T07:10:59.721Z,1002.30
2024-03-12T07:12:00.174Z,1002.31
2024-03-12T07:12:59.644Z,1002.35
2024-03-12T07:13:59.676Z,1002.37
2024-03-12T07:14:59.751Z,1002.39
2024-03-12T07:15:59.682Z,1002.40
2024-03-12T07:16:59.658Z,1002.39
2024-03-12T07:17:59.818Z,1002.40
2024-03-12T07:18:59.622Z,1002.42
2024-03-12T07:19:59.665Z,1002.43
2024-03-12T07:20:59.581Z,1002.44
2024-03-12T07:21:59.660Z,1002.44
2024-03-12T07:22:59.646Z,1002.48
2024-03-12T07:23:59.642Z,1002.51
2024-03-12T07:24:59.763Z,1002.47
2024-03-12T07:25:59.634Z,1002.52
2024-03-12T07:26:59.597Z,1002.55
2024-03-12T07:27:59.548Z,1002.51
2024-03-12T07:28:59.601Z,1002.51
2024-03-12T07:29:59.520Z,1002.51
2024-03-12T07:30:59.678Z,1002.51
2024-03-12T07:31:59.515Z,1002.50
2024-03-12T07:33:59.564Z,1002.51
2024-03-12T07:35:59.542Z,1002.58
2024-03-12T07:37:59.636Z,1002.60
2024-03-12T07:39:59.649Z,1002.61
2024-03-12T07:40:59.536Z,1002.66
2024-03-12T07:42:00.406Z,1002.63
2024-03-12T07:42:59.478Z,1002.64
2024-03-12T07:43:59.437Z,1002.65
2024-03-12T07:44:59.423Z,1002.69
2024-03-12T07:46:59.464Z,1002.67
2024-03-12T07:47:59.459Z,1002.73
2024-03-12T07:48:59.444Z,1002.70
2024-03-12T07:49:59.446Z,1002.71
2024-03-12T07:52:59.400Z,1002.75
2024-03-12T07:53:59.500Z,1002.71
2024-03-12T07:54:59.423Z,1002.74
2024-03-12T07:55:59.372Z,1002.78
2024-03-12T07:56:59.410Z,1002.77
2024-03-12T07:57:59.364Z,1002.77
2024-03-12T07:59:59.354Z,1002.79
2024-03-12T08:00:59.382Z,1002.79
2024-03-12T08:01:59.705Z,1002.81
2024-03-12T08:04:59.376Z,1002.87
2024-03-12T08:05:59.336Z,1002.85
2024-03-12T08:06:59.388Z,1002.89
2024-03-12T08:07:59.308Z,1002.91
2024-03-12T08:09:59.404Z,1002.98
2024-03-12T08:10:59.321Z,1002.97
2024-03-12T08:11:59.283Z,1002.97
2024-03-12T08:12:59.302Z,1002.96
2024-03-12T08:13:59.408Z,1002.93
2024-03-12T08:14:59.251Z,1002.99
2024-03-12T08:15:59.275Z,1002.97
2024-03-12T08:16:59.250Z,1002.92
2024-03-12T08:18:06.158Z,1002.98
2024-03-12T08:18:59.265Z,1002.95
2024-03-12T08:19:59.273Z,1002.98
2024-03-12T08:20:59.320Z,1002.98
2024-03-12T08:21:59.259Z,1003.02
2024-03-12T08:22:59.256Z,1003.03
2024-03-12T08:23:59.218Z,1002.99
2024-03-12T08:24:59.231Z,1003.01
2024-03-12T08:26:00.668Z,1003.04
2024-03-12T08:26:59.231Z,1003.03
2024-03-12T08:27:59.201Z,1003.03
2024-03-12T08:28:59.247Z,1003.08
2024-03-12T08:29:59.213Z,1003.11
2024-03-12T08:31:04.475Z,1003.08
2024-03-12T08:32:00.559Z,1003.08
2024-03-12T08:32:59.210Z,1003.08
2024-03-12T08:33:59.178Z,1003.09
2024-03-12T08:34:59.188Z,1003.13
2024-03-12T08:35:59.127Z,1003.14
2024-03-12T08:36:59.202Z,1003.15
2024-03-12T08:37:59.132Z,1003.20
2024-03-12T08:38:59.117Z,1003.17
2024-03-12T08:39:59.129Z,1003.20
2024-03-12T08:40:59.105Z,1003.17
2024-03-12T08:43:04.083Z,1003.16
2024-03-12T08:43:59.103Z,1003.17
2024-03-12T08:44:59.120Z,1003.18
2024-03-12T08:45:59.156Z,1003.25
2024-03-12T08:46:59.556Z,1003.22
2024-03-12T08:47:59.098Z,1003.22
2024-03-12T08:48:59.130Z,1003.25
2024-03-12T08:49:59.053Z,1003.28
2024-03-12T08:50:59.225Z,1003.28
2024-03-12T08:51:59.076Z,1003.32
2024-03-12T08:52:59.129Z,1003.29
2024-03-12T08:53:59.034Z,1003.37
2024-03-12T08:54:59.092Z,1003.39
2024-03-12T08:55:59.019Z,1003.34
2024-03-12T08:56:59.014Z,1003.35
2024-03-12T08:57:59.045Z,1003.34
2024-03-12T08:58:59.001Z,1003.41
2024-03-12T08:59:59.021Z,1003.39
2024-03-12T09:00:59.159Z,1003.39
2024-03-12T09:01:59.106Z,1003.38
2024-03-12T09:02:59.062Z,1003.45
2024-03-12T09:03:59.031Z,1003.46
2024-03-12T09:04:59.076Z,1003.44
2024-03-12T09:05:59.272Z,1003.49
2024-03-12T09:06:59.140Z,1003.49
2024-03-12T09:07:58.951Z,1003.49
2024-03-12T09:08:59.008Z,1003.49
2024-03-12T09:09:58.990Z,1003.50
2024-03-12T09:10:59.064Z,1003.51
2024-03-12T09:11:59.050Z,1003.56
2024-03-12T09:12:59.003Z,1003.53
2024-03-12T09:13:58.925Z,1003.50
2024-03-12T09:14:58.913Z,1003.52
2024-03-12T09:15:58.940Z,1003.57
2024-03-12T09:16:58.911Z,1003.59
2024-03-12T09:18:58.941Z,1003.60
2024-03-12T09:19:58.892Z,1003.60
2024-03-12T09:20:58.888Z,1003.61
2024-03-12T09:21:58.933Z,1003.60
2024-03-12T09:22:58.869Z,1003.64
2024-03-12T09:24:02.121Z,1003.64
2024-03-12T09:24:58.880Z,1003.68
2024-03-12T09:25:59.007Z,1003.66
2024-03-12T09:26:58.897Z,1003.64
2024-03-12T09:27:58.857Z,1003.70
2024-03-12T09:28:59.263Z,1003.69
2024-03-12T09:29:58.831Z,1003.70
2024-03-12T09:30:58.974Z,1003.74
2024-03-12T09:31:58.819Z,1003.74
2024-03-12T09:32:58.838Z,1003.74
2024-03-12T09:33:58.842Z,1003.77
2024-03-12T09:35:58.872Z,1003.77
2024-03-12T09:36:58.842Z,1003.80
2024-03-12T09:37:58.800Z,1003.76
2024-03-12T09:38:58.793Z,1003.81
2024-03-12T09:40:58.771Z,1003.81
2024-03-12T09:41:58.772Z,1003.80
2024-03-12T09:42:58.800Z,1003.85
2024-03-12T09:43:58.749Z,1003.88
2024-03-12T09:44:58.745Z,1003.88
2024-03-12T09:45:58.876Z,1003.87
2024-03-12T09:46:58.738Z,1003.89
2024-03-12T09:47:58.784Z,1003.92
2024-03-12T09:48:58.734Z,1003.89
2024-03-12T09:49:58.719Z,1003.93
2024-03-12T09:50:58.711Z,1003.95
2024-03-12T09:51:58.835Z,1003.93
2024-03-12T09:53:58.747Z,1003.97
2024-03-12T09:55:58.742Z,1003.99
2024-03-12T09:56:58.678Z,1004.03
2024-03-12T09:57:58.767Z,1003.99
2024-03-12T09:58:58.797Z,1004.07
2024-03-12T09:59:58.661Z,1004.05
2024-03-12T10:01:58.682Z,1004.04
2024-03-12T10:02:58.693Z,1004.07
2024-03-12T10:03:58.717Z,1004.08
2024-03-12T10:04:58.652Z,1004.05
2024-03-12T10:05:58.627Z,1004.05
2024-03-12T10:06:58.676Z,1004.09
2024-03-12T10:07:58.616Z,1004.04
2024-03-12T10:08:58.610Z,1004.05
2024-03-12T10:09:58.724Z,1004.07
2024-03-12T10:10:58.681Z,1004.08
2024-03-12T10:11:58.593Z,1004.09
2024-03-12T10:12:58.633Z,1004.07
2024-03-12T10:13:58.584Z,1004.05
2024-03-12T10:14:59.233Z,1004.06
2024-03-12T10:15:58.708Z,1004.05
2024-03-12T10:16:58.663Z,1004.09
2024-03-12T10:17:58.619Z,1004.10
2024-03-12T10:18:58.637Z,1004.09
2024-03-12T10:19:58.620Z,1004.05
2024-03-12T10:20:58.715Z,1004.07
2024-03-12T10:21:58.584Z,1004.08
2024-03-12T10:22:58.562Z,1004.06
2024-03-12T10:23:58.626Z,1004.08
2024-03-12T10:24:58.560Z,1004.10
2024-03-12T10:25:58.568Z,1004.08
2024-03-12T10:26:58.567Z,1004.10
2024-03-12T10:28:06.620Z,1004.08
2024-03-12T10:28:58.504Z,1004.11
2024-03-12T10:29:58.521Z,1004.13
2024-03-12T10:30:58.567Z,1004.16
2024-03-12T10:31:58.481Z,1004.13
2024-03-12T10:32:58.586Z,1004.14
2024-03-12T10:33:58.496Z,1004.14
2024-03-12T10:34:58.474Z,1004.14
2024-03-12T10:35:58.520Z,1004.17
2024-03-12T10:36:58.476Z,1004.23
2024-03-12T10:38:58.452Z,1004.17
2024-03-12T10:39:58.481Z,1004.18
2024-03-12T10:40:58.710Z,1004.19
2024-03-12T10:41:58.516Z,1004.19
2024-03-12T10:42:58.433Z,1004.21
2024-03-12T10:43:58.468Z,1004.20
2024-03-12T10:44:58.411Z,1004.21
2024-03-12T10:45:58.423Z,1004.20
2024-03-12T10:46:58.476Z,1004.20
2024-03-12T10:47:58.412Z,1004.19
2024-03-12T10:48:58.422Z,1004.21
2024-03-12T10:49:58.409Z,1004.19
2024-03-12T10:50:58.379Z,1004.19
2024-03-12T10:51:58.528Z,1004.17
2024-03-12T10:52:58.477Z,1004.13
2024-03-12T10:53:58.372Z,1004.15
2024-03-12T10:55:05.660Z,1004.14
2024-03-12T10:55:58.510Z,1004.12
2024-03-12T10:56:58.349Z,1004.15
2024-03-12T10:57:58.523Z,1004.17
2024-03-12T10:58:58.420Z,1004.15
2024-03-12T10:59:58.471Z,1004.19
2024-03-12T11:00:58.572Z,1004.15
2024-03-12T11:01:58.421Z,1004.17
2024-03-12T11:02:58.382Z,1004.16
2024-03-12T11:03:58.371Z,1004.17
2024-03-12T11:04:58.366Z,1004.19
2024-03-12T11:05:58.298Z,1004.21
2024-03-12T11:06:58.318Z,1004.18
2024-03-12T11:07:58.323Z,1004.20
2024-03-12T11:08:58.294Z,1004.18
2024-03-12T11:09:58.323Z,1004.17
2024-03-12T11:10:58.345Z,1004.17
2024-03-12T11:12:58.325Z,1004.16
2024-03-12T11:13:58.317Z,1004.20
2024-03-12T11:14:58.246Z,1004.18
2024-03-12T11:16:08.302Z,1004.21
2024-03-12T11:16:58.238Z,1004.20
2024-03-12T11:17:58.325Z,1004.20
2024-03-12T11:18:58.328Z,1004.20
2024-03-12T11:20:00.287Z,1004.18
2024-03-12T11:20:58.226Z,1004.17
2024-03-12T11:21:58.278Z,1004.20
2024-03-12T11:22:58.208Z,1004.18
2024-03-12T11:23:58.207Z,1004.21
2024-03-12T11:24:58.247Z,1004.24
2024-03-12T11:25:58.239Z,1004.26
2024-03-12T11:26:58.199Z,1004.20
2024-03-12T11:27:58.240Z,1004.23
2024-03-12T11:28:58.221Z,1004.25
2024-03-12T11:29:58.165Z,1004.23
2024-03-12T11:30:58.239Z,1004.23
2024-03-12T11:31:58.156Z,1004.26
2024-03-12T11:33:58.225Z,1004.27
2024-03-12T11:34:58.193Z,1004.28
2024-03-12T11:35:58.308Z,1004.31
2024-03-12T11:36:58.172Z,1004.26
2024-03-12T11:37:58.125Z,1004.32
2024-03-12T11:38:58.116Z,1004.34
2024-03-12T11:40:58.114Z,1004.34
2024-03-12T11:41:58.106Z,1004.33
2024-03-12T11:42:58.265Z,1004.34
2024-03-12T11:44:58.091Z,1004.39
2024-03-12T11:45:58.125Z,1004.39
2024-03-12T11:46:58.076Z,1004.37
2024-03-12T11:47:58.094Z,1004.34
2024-03-12T11:48:58.078Z,1004.40
2024-03-12T11:49:59.554Z,1004.40
2024-03-12T11:50:58.054Z,1004.38
2024-03-12T11:51:58.110Z,1004.44
2024-03-12T11:52:58.049Z,1004.37
2024-03-12T11:53:58.041Z,1004.42
2024-03-12T11:54:58.128Z,1004.40
2024-03-12T11:55:59.718Z,1004.43
2024-03-12T11:56:58.028Z,1004.47
2024-03-12T11:57:58.149Z,1004.45
2024-03-12T11:59:02.998Z,1004.47
2024-03-12T11:59:58.014Z,1004.45
2024-03-12T12:00:58.146Z,1004.41
2024-03-12T12:01:59.120Z,1004.49
2024-03-12T12:02:57.990Z,1004.48
2024-03-12T12:03:58.119Z,1004.47
2024-03-12T12:04:58.035Z,1004.43
2024-03-12T12:05:58.054Z,1004.52
2024-03-12T12:06:58.047Z,1004.54
2024-03-12T12:07:57.969Z,1004.55
2024-03-12T12:09:00.898Z,1004.56
2024-03-12T12:09:58.015Z,1004.55
2024-03-12T12:10:57.953Z,1004.53
2024-03-12T12:11:58.009Z,1004.55
2024-03-12T12:12:57.986Z,1004.63
2024-03-12T12:13:58.714Z,1004.55
2024-03-12T12:14:57.958Z,1004.53
2024-03-12T12:15:57.970Z,1004.57
2024-03-12T12:16:58.795Z,1004.56
2024-03-12T12:18:58.011Z,1004.59
2024-03-12T12:20:57.983Z,1004.57
2024-03-12T12:21:57.927Z,1004.59
2024-03-12T12:23:58.097Z,1004.56
2024-03-12T12:24:58.027Z,1004.63
2024-03-12T12:25:57.935Z,1004.61
2024-03-12T12:26:57.868Z,1004.60
2024-03-12T12:28:57.870Z,1004.60
2024-03-12T12:29:58.709Z,1004.60
2024-03-12T12:30:57.883Z,1004.62
2024-03-12T12:31:57.844Z,1004.64
2024-03-12T12:33:57.854Z,1004.64
2024-03-12T12:35:57.876Z,1004.67
2024-03-12T12:36:57.839Z,1004.64
2024-03-12T12:37:57.819Z,1004.63
2024-03-12T12:39:02.687Z,1004.66
2024-03-12T12:39:57.852Z,1004.63
2024-03-12T12:40:57.813Z,1004.61
2024-03-12T12:41:57.818Z,1004.58
2024-03-12T12:42:57.899Z,1004.62
2024-03-12T12:43:57.795Z,1004.62